createdAt,value
2018-04-28T00:01:13.438Z,4.90
2018-04-28T00:06:15.996Z,5.77
2018-04-28T00:11:18.558Z,6.37
2018-04-28T00:16:27.491Z,4.50
2018-04-28T00:21:33.053Z,3.70
2018-04-28T00:26:35.786Z,4.57
2018-04-28T00:31:40.359Z,4.00
2018-04-28T00:37:01.801Z,3.97
2018-04-28T00:42:09.322Z,3.40
2018-04-28T00:47:18.659Z,3.80
2018-04-28T00:52:21.208Z,3.97
2018-04-28T01:03:12.179Z,3.10
2018-04-28T01:08:36.193Z,3.27
2018-04-28T01:13:43.460Z,3.03
2018-04-28T01:18:54.721Z,3.43
2018-04-28T01:23:58.025Z,3.53
2018-04-28T01:29:07.308Z,2.93
2018-04-28T01:34:16.301Z,3.80
2018-04-28T01:44:56.930Z,3.10
2018-04-28T01:50:00.980Z,3.10
2018-04-28T01:55:04.612Z,3.60
2018-04-28T02:00:14.140Z,3.70
2018-04-28T02:10:56.492Z,3.10
2018-04-28T02:16:08.976Z,2.90
2018-04-28T02:26:53.164Z,3.33
2018-04-28T02:32:04.565Z,2.70
2018-04-28T02:43:01.695Z,3.00
2018-04-28T02:48:11.620Z,2.50
2018-04-28T02:53:19.181Z,2.97
2018-04-28T02:58:24.689Z,3.20
2018-04-28T03:03:32.990Z,3.03
2018-04-28T03:08:40.576Z,3.20
2018-04-28T03:14:01.373Z,2.57
2018-04-28T03:19:12.723Z,3.00
2018-04-28T03:24:25.360Z,2.83
2018-04-28T03:29:35.036Z,2.80
2018-04-28T03:34:47.232Z,2.80
2018-04-28T03:40:07.591Z,2.70
2018-04-28T03:45:10.140Z,2.63
2018-04-28T03:50:19.159Z,2.90
2018-04-28T03:55:29.628Z,2.90
2018-04-28T04:00:43.941Z,2.37
2018-04-28T04:06:06.842Z,2.47
2018-04-28T04:11:22.469Z,2.90
2018-04-28T04:22:23.223Z,2.90
2018-04-28T04:27:33.580Z,3.03
2018-04-28T04:32:40.561Z,2.70
2018-04-28T04:37:55.400Z,3.00
2018-04-28T04:43:01.888Z,3.20
2018-04-28T04:48:08.894Z,3.00
2018-04-28T04:53:15.633Z,3.10
2018-04-28T05:04:12.181Z,3.07
2018-04-28T05:09:28.956Z,2.80
2018-04-28T05:20:22.053Z,3.40
2018-04-28T05:31:25.177Z,3.07
2018-04-28T05:36:38.536Z,3.43
2018-04-28T05:41:47.848Z,3.47
2018-04-28T05:46:56.057Z,3.70
2018-04-28T05:52:05.525Z,3.50
2018-04-28T05:57:19.797Z,3.80
2018-04-28T06:02:30.909Z,3.70
2018-04-28T06:07:42.864Z,3.90
2018-04-28T06:18:28.020Z,4.37
2018-04-28T06:23:31.352Z,4.37
2018-04-28T06:28:33.920Z,4.40
2018-04-28T06:33:36.988Z,4.00
2018-04-28T06:38:39.809Z,3.20
2018-04-28T06:43:42.753Z,3.80
2018-04-28T06:48:46.072Z,3.70
2018-04-28T06:53:49.394Z,3.60
2018-04-28T06:58:52.433Z,3.30
2018-04-28T07:03:54.997Z,3.40
2018-04-28T07:08:58.486Z,3.27
2018-04-28T07:14:01.037Z,2.90
2018-04-28T07:19:04.606Z,3.43
2018-04-28T07:24:07.152Z,3.53
2018-04-28T07:29:09.740Z,3.07
2018-04-28T07:34:12.883Z,3.20
2018-04-28T07:39:15.453Z,3.10
2018-04-28T07:44:18.519Z,3.20
2018-04-28T07:49:21.510Z,3.13
2018-04-28T07:54:25.449Z,2.90
2018-04-28T07:59:30.683Z,2.77
2018-04-28T08:04:34.667Z,2.70
2018-04-28T08:09:38.000Z,2.70
2018-04-28T08:14:40.583Z,2.83
2018-04-28T08:19:43.942Z,2.60
2018-04-28T08:24:46.669Z,3.27
2018-04-28T08:29:49.216Z,3.47
2018-04-28T08:34:51.764Z,2.70
2018-04-28T08:39:54.961Z,2.53
2018-04-28T08:44:57.866Z,2.83
2018-04-28T08:50:00.913Z,2.60
2018-04-28T08:55:03.517Z,2.80
2018-04-28T09:00:18.633Z,3.40
2018-04-28T09:05:21.519Z,2.73
2018-04-28T09:10:24.840Z,2.30
2018-04-28T09:15:28.917Z,2.50
2018-04-28T09:20:31.932Z,2.37
2018-04-28T09:25:34.514Z,2.50
2018-04-28T09:30:37.670Z,3.30
2018-04-28T09:35:40.225Z,2.50
2018-04-28T09:40:42.792Z,2.80
2018-04-28T09:45:45.394Z,2.63
2018-04-28T09:50:47.946Z,2.37
2018-04-28T09:55:50.955Z,2.30
2018-04-28T10:00:53.528Z,2.13
2018-04-28T10:05:56.138Z,1.70
2018-04-28T10:10:58.706Z,1.90
2018-04-28T10:16:02.231Z,2.13
2018-04-28T10:21:06.631Z,2.33
2018-04-28T10:26:09.970Z,2.43
2018-04-28T10:31:13.017Z,2.23
2018-04-28T10:36:16.861Z,2.30
2018-04-28T10:41:19.403Z,2.60
2018-04-28T10:46:22.779Z,2.30
2018-04-28T10:51:25.349Z,2.50
2018-04-28T10:56:28.472Z,2.77
2018-04-28T11:01:31.440Z,3.10
2018-04-28T11:06:34.012Z,2.63
2018-04-28T11:11:37.336Z,2.30
2018-04-28T11:16:40.666Z,3.10
2018-04-28T11:21:43.227Z,2.70
2018-04-28T11:26:46.729Z,2.90
2018-04-28T11:31:49.297Z,2.40
2018-04-28T11:36:51.883Z,2.50
2018-04-28T11:41:54.941Z,2.93
2018-04-28T11:46:57.499Z,2.90
2018-04-28T11:52:00.061Z,2.90
2018-04-28T11:57:03.429Z,3.20
2018-04-28T12:02:06.286Z,3.20
2018-04-28T12:07:09.628Z,2.97
2018-04-28T12:12:13.247Z,2.77
2018-04-28T12:17:15.823Z,2.83
2018-04-28T12:22:19.159Z,2.87
2018-04-28T12:27:22.054Z,2.33
2018-04-28T12:32:25.372Z,2.47
2018-04-28T12:37:27.943Z,2.60
2018-04-28T12:42:30.501Z,2.33
2018-04-28T12:47:33.057Z,2.53
2018-04-28T12:52:39.025Z,2.63
2018-04-28T12:57:42.651Z,2.20
2018-04-28T13:02:45.988Z,2.80
2018-04-28T13:07:48.566Z,2.53
2018-04-28T13:12:51.882Z,3.00
2018-04-28T13:17:54.473Z,2.83
2018-04-28T13:22:57.796Z,2.77
2018-04-28T13:28:01.708Z,3.10
2018-04-28T13:33:10.892Z,2.60
2018-04-28T13:38:14.101Z,2.87
2018-04-28T13:43:16.681Z,2.93
2018-04-28T13:48:20.481Z,2.90
2018-04-28T13:53:23.522Z,3.03
2018-04-28T13:58:26.853Z,2.70
2018-04-28T14:03:29.423Z,3.00
2018-04-28T14:08:32.563Z,2.97
2018-04-28T14:13:35.163Z,2.60
2018-04-28T14:18:37.790Z,3.00
2018-04-28T14:23:41.072Z,3.10
2018-04-28T14:28:43.965Z,2.90
2018-04-28T14:33:47.953Z,3.17
2018-04-28T14:38:50.852Z,2.60
2018-04-28T14:43:53.429Z,2.77
2018-04-28T14:48:56.461Z,2.57
2018-04-28T14:53:59.031Z,3.20
2018-04-28T14:59:01.630Z,3.30
2018-04-28T15:04:07.083Z,2.60
2018-04-28T15:09:09.644Z,2.73
2018-04-28T15:14:12.213Z,2.80
2018-04-28T15:19:15.081Z,2.63
2018-04-28T15:24:18.288Z,2.60
2018-04-28T15:29:21.623Z,2.87
2018-04-28T15:34:25.416Z,2.90
2018-04-28T15:39:29.370Z,2.53
2018-04-28T15:44:32.630Z,2.90
2018-04-28T15:49:35.208Z,3.47
2018-04-28T15:54:37.808Z,3.27
2018-04-28T15:59:40.459Z,2.53
2018-04-28T16:04:44.415Z,2.53
2018-04-28T16:09:47.177Z,2.47
2018-04-28T16:14:50.513Z,2.97
2018-04-28T16:19:53.659Z,2.43
2018-04-28T16:24:56.215Z,3.17
2018-04-28T16:29:59.546Z,5.20
2018-04-28T16:35:02.169Z,3.50
2018-04-28T16:40:05.350Z,2.70
2018-04-28T16:45:08.506Z,3.60
2018-04-28T16:50:11.343Z,3.63
2018-04-28T16:55:14.632Z,3.57
2018-04-28T17:00:17.191Z,3.00
2018-04-28T17:05:20.226Z,3.10
2018-04-28T17:10:23.384Z,3.70
2018-04-28T17:15:26.709Z,3.20
2018-04-28T17:20:30.122Z,3.67
2018-04-28T17:25:33.453Z,3.30
2018-04-28T17:30:36.350Z,3.17
2018-04-28T17:35:39.208Z,4.00
2018-04-28T17:40:42.973Z,3.60
2018-04-28T17:45:46.302Z,4.00
2018-04-28T17:50:48.910Z,5.13
2018-04-28T17:55:51.477Z,5.60
2018-04-28T18:00:54.051Z,6.30
2018-04-28T18:05:57.485Z,6.50
2018-04-28T18:11:00.968Z,5.47
2018-04-28T18:16:03.540Z,4.60
2018-04-28T18:21:06.888Z,5.53
2018-04-28T18:26:09.480Z,5.50
2018-04-28T18:31:12.045Z,6.00
2018-04-28T18:36:14.613Z,6.10
2018-04-28T18:41:17.186Z,4.37
2018-04-28T18:46:19.767Z,4.57
2018-04-28T18:51:24.928Z,5.27
2018-04-28T18:56:28.747Z,4.73
2018-04-28T19:01:31.316Z,5.87
2018-04-28T19:06:38.032Z,4.67
2018-04-28T19:11:41.109Z,4.33
2018-04-28T19:16:44.940Z,4.07
2018-04-28T19:21:48.279Z,3.77
2018-04-28T19:26:51.349Z,3.97
2018-04-28T19:31:53.921Z,3.60
2018-04-28T19:36:56.512Z,4.00
2018-04-28T19:41:59.093Z,3.50
2018-04-28T19:47:01.661Z,4.00
2018-04-28T19:52:05.009Z,3.73
2018-04-28T19:57:08.225Z,4.27
2018-04-28T20:02:10.794Z,4.67
2018-04-28T20:07:13.373Z,3.83
2018-04-28T20:12:16.800Z,3.50
2018-04-28T20:17:20.118Z,4.00
2018-04-28T20:22:35.612Z,4.53
2018-04-28T20:27:38.938Z,5.03
2018-04-28T20:32:41.522Z,5.10
2018-04-28T20:37:44.866Z,5.43
2018-04-28T20:42:47.468Z,5.40
2018-04-28T20:47:50.033Z,4.27
2018-04-28T20:52:53.391Z,5.00
2018-04-28T20:57:55.957Z,4.50
2018-04-28T21:02:59.872Z,3.80
2018-04-28T21:08:03.193Z,5.10
2018-04-28T21:13:06.863Z,5.47
2018-04-28T21:18:09.415Z,4.90
2018-04-28T21:23:13.647Z,5.63
2018-04-28T21:28:17.005Z,5.23
2018-04-28T21:33:19.568Z,5.87
2018-04-28T21:38:23.749Z,5.60
2018-04-28T21:43:26.338Z,5.60
2018-04-28T21:48:28.905Z,6.43
2018-04-28T21:53:34.861Z,6.40
2018-04-28T21:58:37.741Z,6.47
2018-04-28T22:03:40.799Z,12.87
2018-04-28T22:08:44.223Z,7.10
2018-04-28T22:13:47.573Z,6.60
2018-04-28T22:18:53.079Z,5.30
2018-04-28T22:23:56.472Z,5.30
2018-04-28T22:28:59.030Z,5.00
2018-04-28T22:34:01.587Z,5.33
2018-04-28T22:39:07.000Z,5.37
2018-04-28T22:44:12.076Z,5.60
2018-04-28T22:49:14.928Z,6.00
2018-04-28T22:54:18.273Z,5.03
2018-04-28T22:59:20.830Z,5.80
2018-04-28T23:04:23.410Z,4.83
2018-04-28T23:09:25.967Z,4.70
2018-04-28T23:14:28.544Z,4.50
2018-04-28T23:19:32.060Z,4.30
2018-04-28T23:24:36.550Z,4.10
2018-04-28T23:29:39.696Z,4.93
2018-04-28T23:34:43.028Z,4.37
2018-04-28T23:39:46.377Z,4.27
2018-04-28T23:44:49.359Z,4.50
2018-04-28T23:49:52.713Z,4.00
2018-04-28T23:54:55.301Z,4.50
2018-04-28T23:59:58.418Z,4.30
